Time;durP1;ratioP1;P1;durP2;ratioP2;P2;SDS_P1;SDS_P2;PMS_P1;PMS_P2;Temp;Humidity;BMP_temperature;BMP_pressure;BME280_temperature;BME280_humidity;BME280_pressure;Samples;Min_cycle;Max_cycle;Signal;HPM_P1;HPM_P2
2021/06/22 00:01:18;;;;;;;5.90;5.15;;;;;;;20.35;73.94;100498.84;4873787;28;102119;-60
2021/06/22 00:03:46;;;;;;;5.27;4.77;;;;;;;20.36;74.08;100494.94;4871951;28;102490;-60
2021/06/22 00:06:13;;;;;;;5.17;4.63;;;;;;;20.36;74.13;100497.69;4874147;28;104144;-60
2021/06/22 00:08:40;;;;;;;5.53;5.03;;;;;;;20.35;73.89;100498.84;4873903;28;103882;-60
2021/06/22 00:11:06;;;;;;;5.60;5.10;;;;;;;20.35;73.90;100493.31;4876999;28;102777;-61
2021/06/22 00:13:33;;;;;;;5.72;5.13;;;;;;;20.36;74.18;100488.59;4873300;28;102280;-60
2021/06/22 00:16:00;;;;;;;5.50;4.97;;;;;;;20.36;73.93;100486.66;4874134;28;102401;-61
2021/06/22 00:18:26;;;;;;;7.47;5.22;;;;;;;20.36;74.11;100499.66;4871949;28;104142;-61
2021/06/22 00:20:54;;;;;;;5.45;4.93;;;;;;;20.36;74.16;100489.41;4871580;28;102310;-61
2021/06/22 00:23:21;;;;;;;5.93;5.32;;;;;;;20.36;73.85;100483.06;4872490;28;102745;-61
2021/06/22 00:25:48;;;;;;;5.38;4.75;;;;;;;20.36;74.09;100491.38;4872218;28;102460;-61
2021/06/22 00:28:15;;;;;;;6.70;5.05;;;;;;;20.36;73.75;100492.16;4872322;28;103985;-60
2021/06/22 00:30:42;;;;;;;5.57;5.07;;;;;;;20.36;74.10;100500.47;4869723;28;102592;-61
2021/06/22 00:33:08;;;;;;;6.25;5.60;;;;;;;20.37;73.88;100506.78;4873790;28;102181;-61
2021/06/22 00:35:35;;;;;;;5.53;5.03;;;;;;;20.38;73.91;100516.72;4872878;28;102656;-61
2021/06/22 00:38:03;;;;;;;5.65;4.93;;;;;;;20.37;73.80;100515.09;4872453;28;103865;-61
2021/06/22 00:40:30;;;;;;;6.03;5.28;;;;;;;20.38;74.03;100519.47;4872246;28;103135;-61
2021/06/22 00:42:56;;;;;;;8.32;5.28;;;;;;;20.37;74.12;100518.66;4871623;28;102319;-61
2021/06/22 00:45:28;;;;;;;5.47;4.80;;;;;;;20.36;73.82;100506.00;4872561;28;103953;-61
2021/06/22 00:47:55;;;;;;;6.50;4.88;;;;;;;20.37;74.04;100502.06;4871698;28;104065;-61
2021/06/22 00:50:21;;;;;;;5.75;5.25;;;;;;;20.37;74.06;100499.31;4871587;28;103440;-61
2021/06/22 00:52:48;;;;;;;6.47;5.07;;;;;;;20.37;73.95;100499.31;4874908;28;104212;-61
2021/06/22 00:55:28;;;;;;;8.05;5.10;;;;;;;20.36;73.95;100494.94;4884683;28;102320;-61
2021/06/22 00:57:57;;;;;;;5.90;5.00;;;;;;;20.37;73.95;100496.53;4868424;28;104023;-61
2021/06/22 01:00:24;;;;;;;;;;;;;;;20.37;73.92;100493.78;4871465;28;103398;-61
2021/06/22 01:02:52;;;;;;;6.93;5.40;;;;;;;20.37;73.99;100496.53;4871483;28;102552;-61
2021/06/22 01:05:18;;;;;;;7.20;4.97;;;;;;;20.37;74.14;100493.78;4868531;28;102823;-61
2021/06/22 01:07:45;;;;;;;6.35;5.20;;;;;;;20.37;73.99;100485.47;4868789;28;105265;-61
2021/06/22 01:10:12;;;;;;;6.82;5.05;;;;;;;20.36;73.99;100478.34;4872281;28;102598;-61
2021/06/22 01:12:40;;;;;;;6.85;5.00;;;;;;;20.36;74.09;100489.41;4871778;28;102227;-61
2021/06/22 01:15:11;;;;;;;;;;;;;;;20.36;74.15;100483.88;4867062;28;102783;-61
2021/06/22 01:17:38;;;;;;;5.43;4.90;;;;;;;20.36;73.99;100486.66;4871793;28;104207;-61
2021/06/22 01:20:06;;;;;;;5.50;4.80;;;;;;;20.38;73.99;100480.78;4871323;28;104029;-59
2021/06/22 01:22:34;;;;;;;8.27;5.68;;;;;;;20.36;74.13;100475.59;4872208;28;102707;-61
2021/06/22 01:25:03;;;;;;;8.43;5.33;;;;;;;20.37;74.06;100473.63;4871370;28;102546;-61
2021/06/22 01:27:30;;;;;;;6.07;4.90;;;;;;;20.36;74.22;100472.03;4872392;28;104190;-61
2021/06/22 01:29:59;;;;;;;4.82;4.43;;;;;;;20.37;74.09;100463.38;4871864;28;102397;-61
2021/06/22 01:32:25;;;;;;;6.80;5.15;;;;;;;20.36;73.97;100444.38;4874934;28;102393;-61
2021/06/22 01:34:52;;;;;;;5.78;4.65;;;;;;;20.36;73.80;100434.13;4881929;28;102474;-61
2021/06/22 01:37:18;;;;;;;17.45;5.18;;;;;;;20.36;74.20;100434.13;4874371;28;104156;-61
2021/06/22 01:39:46;;;;;;;6.55;5.25;;;;;;;20.37;73.99;100430.22;4873624;28;102865;-61
2021/06/22 01:42:14;;;;;;;6.32;5.15;;;;;;;20.36;74.29;100414.78;4873696;28;102481;-60
2021/06/22 01:44:46;;;;;;;9.80;5.68;;;;;;;20.37;74.20;100394.28;4873087;28;102612;-61
2021/06/22 01:47:13;;;;;;;5.38;4.53;;;;;;;20.37;74.05;100412.81;4872369;28;104050;-61
2021/06/22 01:49:40;;;;;;;5.88;4.88;;;;;;;20.37;74.17;100435.75;4871272;28;102686;-61
2021/06/22 01:52:06;;;;;;;5.55;5.00;;;;;;;20.38;74.13;100445.66;4872196;28;102590;-61
2021/06/22 01:54:37;;;;;;;6.90;4.95;;;;;;;20.38;74.00;100465.00;4873244;28;102464;-61
2021/06/22 01:57:05;;;;;;;13.77;6.03;;;;;;;20.37;73.95;100468.91;4869646;28;104017;-60
2021/06/22 01:59:32;;;;;;;5.22;4.72;;;;;;;20.40;74.12;100467.41;4877073;28;102492;-61
2021/06/22 02:01:59;;;;;;;5.80;5.03;;;;;;;20.39;74.26;100438.97;4874565;28;102732;-61
2021/06/22 02:04:27;;;;;;;6.30;4.88;;;;;;;20.38;74.08;100423.56;4872060;28;102814;-61
2021/06/22 02:06:53;;;;;;;6.47;5.03;;;;;;;20.38;74.19;100425.50;4870356;28;103914;-61
2021/06/22 02:09:20;;;;;;;6.53;4.80;;;;;;;20.38;74.06;100414.47;4888370;28;102141;-60
2021/06/22 02:11:46;;;;;;;6.78;4.78;;;;;;;20.38;74.03;100409.72;4872016;28;102671;-61
2021/06/22 02:14:15;;;;;;;5.65;5.05;;;;;;;20.39;74.12;100414.09;4870043;28;102493;-61
2021/06/22 02:16:42;;;;;;;6.50;5.03;;;;;;;20.38;74.05;100420.78;4865155;28;103234;-60
2021/06/22 02:19:08;;;;;;;5.85;4.90;;;;;;;20.39;73.99;100416.88;4872007;28;102293;-62
2021/06/22 02:21:35;;;;;;;6.05;5.45;;;;;;;20.39;74.13;100411.34;4871145;28;102499;-61
2021/06/22 02:24:02;;;;;;;7.50;5.10;;;;;;;20.39;74.05;100411.34;4873289;28;102492;-61
2021/06/22 02:26:28;;;;;;;6.18;4.88;;;;;;;20.39;74.02;100416.88;4871850;28;103874;-61
2021/06/22 02:28:55;;;;;;;6.57;5.72;;;;;;;20.40;74.22;100412.94;4869604;28;103412;-61
2021/06/22 02:31:23;;;;;;;6.20;5.30;;;;;;;20.40;73.89;100432.28;4871382;28;103092;-61
2021/06/22 02:33:49;;;;;;;5.40;4.72;;;;;;;20.40;73.79;100423.19;4869756;28;102798;-61
2021/06/22 02:36:19;;;;;;;8.75;4.88;;;;;;;20.39;74.00;100422.41;4871281;28;103770;-61
2021/06/22 02:38:46;;;;;;;5.80;5.18;;;;;;;20.40;74.00;100417.66;4870177;28;102295;-60
2021/06/22 02:41:13;;;;;;;6.35;5.03;;;;;;;20.40;74.08;100420.44;4870282;28;102551;-61
2021/06/22 02:43:39;;;;;;;6.03;5.43;;;;;;;20.40;74.11;100417.66;4872155;28;102727;-61
2021/06/22 02:46:06;;;;;;;6.90;5.22;;;;;;;20.40;73.99;100412.94;4869555;28;103780;-60
2021/06/22 02:48:34;;;;;;;5.43;4.90;;;;;;;20.39;74.29;100416.88;4871715;28;102468;-61
2021/06/22 02:51:00;;;;;;;6.00;5.40;;;;;;;20.39;74.18;100430.69;4865568;28;102232;-61
2021/06/22 02:53:27;;;;;;;6.03;5.25;;;;;;;20.39;74.17;100422.41;4872339;28;102128;-61
2021/06/22 02:55:54;;;;;;;5.78;5.22;;;;;;;20.40;74.17;100437.81;4869645;28;103929;-61
2021/06/22 02:58:20;;;;;;;5.40;4.90;;;;;;;20.42;74.13;100437.50;4870696;28;104128;-61
2021/06/22 03:00:47;;;;;;;7.05;5.45;;;;;;;20.40;74.08;100434.25;4870552;28;102804;-61
2021/06/22 03:03:13;;;;;;;5.32;4.82;;;;;;;20.40;74.08;100435.06;4873313;28;102305;-61
2021/06/22 03:05:41;;;;;;;7.68;5.47;;;;;;;20.40;74.14;100448.88;4867441;28;104146;-60
2021/06/22 03:08:08;;;;;;;5.53;4.97;;;;;;;20.39;74.08;100447.25;4868593;28;102464;-61
2021/06/22 03:10:34;;;;;;;5.90;5.30;;;;;;;20.39;74.22;100450.03;4869037;28;102483;-61
2021/06/22 03:13:01;;;;;;;5.97;5.40;;;;;;;20.42;74.31;100453.28;4872913;28;104372;-61
2021/06/22 03:15:28;;;;;;;9.15;5.60;;;;;;;20.43;74.22;100460.41;4869346;28;103909;-61
2021/06/22 03:17:55;;;;;;;9.25;5.68;;;;;;;20.42;74.10;100464.31;4871263;28;102654;-61
2021/06/22 03:20:22;;;;;;;5.50;5.00;;;;;;;20.42;73.94;100464.31;4869499;28;102616;-61
2021/06/22 03:22:50;;;;;;;6.70;5.68;;;;;;;20.40;74.12;100468.22;4871143;28;102843;-61
2021/06/22 03:25:16;;;;;;;5.43;4.93;;;;;;;20.42;74.22;100475.38;4870990;28;102679;-61
2021/06/22 03:27:44;;;;;;;6.07;5.57;;;;;;;20.42;74.11;100475.38;4868714;28;102577;-61
2021/06/22 03:30:12;;;;;;;7.38;5.90;;;;;;;20.40;74.21;100479.28;4869787;28;102306;-61
2021/06/22 03:32:39;;;;;;;5.93;5.30;;;;;;;20.40;74.27;100487.56;4871997;28;102659;-61
2021/06/22 03:35:07;;;;;;;5.80;5.25;;;;;;;20.39;74.06;100499.78;4868222;28;104030;-61
2021/06/22 03:37:34;;;;;;;7.25;5.60;;;;;;;20.40;74.17;100501.38;4869149;28;102477;-61
2021/06/22 03:40:05;;;;;;;6.18;5.63;;;;;;;20.42;74.46;100508.56;4870427;28;102574;-61
2021/06/22 03:42:32;;;;;;;6.15;5.65;;;;;;;20.40;74.44;100506.91;4864541;28;103024;-61
2021/06/22 03:44:59;;;;;;;6.13;5.10;;;;;;;20.40;74.56;100498.63;4869819;28;103869;-61
2021/06/22 03:47:25;;;;;;;6.00;5.40;;;;;;;20.41;74.18;100496.66;4872270;28;102313;-61
2021/06/22 03:49:52;;;;;;;6.00;5.40;;;;;;;20.42;74.18;100489.19;4869068;28;102509;-61
2021/06/22 03:52:18;;;;;;;6.57;5.20;;;;;;;20.42;74.52;100503.03;4871363;28;102783;-61
2021/06/22 03:54:45;;;;;;;18.17;6.13;;;;;;;20.43;74.12;100512.91;4870630;28;104100;-61
2021/06/22 03:57:13;;;;;;;6.22;5.55;;;;;;;20.44;74.14;100512.56;4872376;28;102637;-61
2021/06/22 03:59:40;;;;;;;6.80;5.17;;;;;;;20.44;74.41;100517.28;4873366;28;104697;-61
2021/06/22 04:02:06;;;;;;;5.60;5.10;;;;;;;20.44;74.13;100528.34;4874482;28;102591;-61
2021/06/22 04:04:33;;;;;;;5.93;5.30;;;;;;;20.45;74.06;100532.72;4869722;28;104189;-61
2021/06/22 04:07:00;;;;;;;5.93;4.93;;;;;;;20.45;74.17;100541.00;4875393;28;102495;-61
2021/06/22 04:09:27;;;;;;;5.57;5.03;;;;;;;20.46;74.22;100548.16;4873581;28;102529;-61
2021/06/22 04:11:56;;;;;;;5.63;4.85;;;;;;;20.45;73.92;100563.13;4873634;28;102298;-61
2021/06/22 04:14:24;;;;;;;10.75;6.15;;;;;;;20.47;74.12;100571.91;4863868;28;103620;-61
2021/06/22 04:16:50;;;;;;;5.00;4.60;;;;;;;20.45;73.95;100574.19;4876776;28;102579;-61
2021/06/22 04:19:17;;;;;;;8.63;5.25;;;;;;;20.45;73.98;100585.22;4873811;28;102229;-61
2021/06/22 04:21:45;;;;;;;5.50;5.00;;;;;;;20.45;73.96;100596.28;4874500;28;102591;-61
2021/06/22 04:24:11;;;;;;;5.25;4.80;;;;;;;20.44;74.02;100595.50;4872544;28;103843;-61
2021/06/22 04:26:38;;;;;;;7.47;5.20;;;;;;;20.43;74.26;100593.88;4871995;28;102436;-61
2021/06/22 04:29:05;;;;;;;5.18;4.72;;;;;;;20.42;74.19;100597.81;4871416;28;102476;-61
2021/06/22 04:31:32;;;;;;;5.63;5.13;;;;;;;20.43;74.36;100587.53;4873762;28;102420;-61
2021/06/22 04:33:59;;;;;;;5.43;4.93;;;;;;;20.43;74.32;100598.59;4871254;28;103747;-61
2021/06/22 04:36:26;;;;;;;6.68;4.72;;;;;;;20.42;74.23;100608.06;4872850;28;102445;-61
2021/06/22 04:38:52;;;;;;;6.03;5.40;;;;;;;20.42;74.11;100608.84;4871072;28;102807;-61
2021/06/22 04:41:22;;;;;;;5.82;4.47;;;;;;;20.42;74.37;100619.13;4873618;28;102680;-61
2021/06/22 04:43:49;;;;;;;8.23;5.10;;;;;;;20.43;74.08;100627.06;4872234;28;104085;-61
2021/06/22 04:46:17;;;;;;;5.10;4.70;;;;;;;20.42;74.17;100619.13;4868889;28;102762;-61
2021/06/22 04:48:44;;;;;;;5.15;4.68;;;;;;;20.42;74.39;100624.63;4873502;28;102352;-61
2021/06/22 04:51:11;;;;;;;5.00;4.53;;;;;;;20.43;74.16;100626.25;4872201;28;102819;-61
2021/06/22 04:53:38;;;;;;;5.30;4.80;;;;;;;20.42;74.33;100619.13;4872055;28;104060;-61
2021/06/22 04:56:05;;;;;;;5.25;4.78;;;;;;;20.43;74.26;100609.66;4875153;28;102544;-62
2021/06/22 04:58:31;;;;;;;5.55;4.20;;;;;;;20.42;74.23;100608.06;4887153;28;102672;-61
2021/06/22 05:01:02;;;;;;;6.82;4.60;;;;;;;20.43;73.98;100609.66;4868137;28;102720;-60
2021/06/22 05:03:30;;;;;;;7.13;4.50;;;;;;;20.49;73.80;100603.59;4879966;28;104082;-61
2021/06/22 05:05:59;;;;;;;9.07;4.50;;;;;;;20.60;75.06;100606.75;4870225;28;102177;-69
2021/06/22 05:08:26;;;;;;;13.52;4.93;;;;;;;20.68;76.30;100600.31;4875370;28;102618;-69
2021/06/22 05:10:53;;;;;;;11.25;4.97;;;;;;;20.72;75.78;100592.94;4871368;28;103416;-69
2021/06/22 05:13:19;;;;;;;7.25;4.55;;;;;;;20.75;77.15;100595.03;4866389;28;103911;-68
2021/06/22 05:15:46;;;;;;;6.65;4.32;;;;;;;20.77;78.53;100581.69;4870182;28;102491;-70
2021/06/22 05:18:13;;;;;;;7.65;3.92;;;;;;;20.80;75.69;100580.16;4861881;28;102390;-70
2021/06/22 05:20:39;;;;;;;14.70;4.93;;;;;;;20.82;75.97;100584.22;4870689;28;104526;-69
2021/06/22 05:23:07;;;;;;;8.55;4.20;;;;;;;20.86;76.23;100584.31;4872494;28;103892;-69
2021/06/22 05:25:34;;;;;;;5.95;4.00;;;;;;;20.88;76.08;100588.38;4870396;28;102417;-69
2021/06/22 05:28:01;;;;;;;5.75;3.63;;;;;;;20.92;76.09;100587.69;4868603;28;102558;-70
2021/06/22 05:30:28;;;;;;;7.43;4.28;;;;;;;20.95;76.17;100589.75;4871979;28;102597;-70
2021/06/22 05:32:55;;;;;;;8.38;5.07;;;;;;;21.00;76.69;100608.91;4869169;28;103738;-70
2021/06/22 05:35:21;;;;;;;12.77;5.00;;;;;;;21.02;77.50;100612.91;4870383;28;103770;-70
2021/06/22 05:37:48;;;;;;;9.48;5.63;;;;;;;21.04;78.47;100620.88;4871817;28;102502;-71
2021/06/22 05:40:16;;;;;;;11.15;4.95;;;;;;;21.06;76.29;100613.03;4872966;28;102414;-71
2021/06/22 05:42:43;;;;;;;16.85;5.60;;;;;;;21.07;77.22;100618.25;4866459;28;104142;-70
2021/06/22 05:45:10;;;;;;;14.57;5.30;;;;;;;21.11;77.11;100621.13;4877201;28;102548;-72
2021/06/22 05:47:36;;;;;;;17.00;5.70;;;;;;;21.14;77.67;100617.66;4868842;28;102438;-72
2021/06/22 05:50:04;;;;;;;9.27;5.57;;;;;;;21.16;77.61;100620.09;4871216;28;102360;-71
2021/06/22 05:52:31;;;;;;;9.75;5.38;;;;;;;21.20;77.73;100621.81;4867445;28;103862;-72
2021/06/22 05:54:58;;;;;;;9.23;5.25;;;;;;;21.22;77.99;100613.16;4869898;28;102539;-71
2021/06/22 05:57:26;;;;;;;12.88;5.60;;;;;;;21.23;78.19;100601.75;4865882;28;102658;-71
2021/06/22 05:59:55;;;;;;;13.35;5.97;;;;;;;21.25;77.74;100596.69;4848049;28;102605;-72
2021/06/22 06:02:22;;;;;;;15.32;4.88;;;;;;;21.25;79.20;100607.75;4852125;28;103749;-71
2021/06/22 06:04:48;;;;;;;17.15;4.70;;;;;;;21.24;78.14;100600.63;4850973;28;102973;-72
2021/06/22 06:07:14;;;;;;;36.53;5.60;;;;;;;21.24;79.52;100599.78;4855984;28;102773;-72
2021/06/22 06:09:42;;;;;;;22.65;5.47;;;;;;;21.22;80.37;100596.56;4855735;28;102671;-72
2021/06/22 06:12:09;;;;;;;16.50;5.35;;;;;;;21.22;80.37;100591.84;4849065;28;104177;-71
2021/06/22 06:14:37;;;;;;;15.82;4.97;;;;;;;21.23;80.36;100590.66;4838128;28;102486;-72
2021/06/22 06:17:04;;;;;;;11.25;4.10;;;;;;;21.22;77.81;100580.75;4840346;28;103574;-71
2021/06/22 06:19:30;;;;;;;10.23;4.20;;;;;;;21.23;77.66;100564.97;4842817;28;103556;-71
2021/06/22 06:21:57;;;;;;;11.27;5.03;;;;;;;21.24;77.71;100556.34;4849240;28;103743;-71
2021/06/22 06:24:24;;;;;;;11.55;4.60;;;;;;;21.25;77.45;100557.94;4851893;28;102738;-72
2021/06/22 06:27:09;;;;;;;10.65;4.18;;;;;;;21.27;77.23;100555.59;4846673;28;103158;-72
2021/06/22 06:32:09;;;;;;;9.00;3.88;;;;;;;21.29;77.77;100558.06;4844574;28;103931;-71
2021/06/22 06:34:36;;;;;;;13.02;3.95;;;;;;;21.32;77.49;100574.78;4844625;28;102586;-72
2021/06/22 06:37:03;;;;;;;4.90;3.58;;;;;;;21.32;77.69;100580.31;4839514;28;102609;-71
2021/06/22 06:39:31;;;;;;;11.90;4.10;;;;;;;21.37;77.77;100584.00;4840028;28;102775;-72
2021/06/22 06:41:58;;;;;;;14.60;5.18;;;;;;;21.38;78.02;100585.63;4839171;28;104002;-71
2021/06/22 06:44:25;;;;;;;13.35;4.68;;;;;;;21.40;78.06;100600.75;4848006;28;102667;-71
2021/06/22 06:46:52;;;;;;;9.35;3.83;;;;;;;21.40;78.22;100609.03;4849637;28;102606;-72
2021/06/22 06:49:19;;;;;;;7.33;3.87;;;;;;;21.42;78.16;100605.91;4854079;28;102299;-72
2021/06/22 06:51:45;;;;;;;11.45;3.88;;;;;;;21.43;78.18;100615.84;4850854;28;102652;-72
2021/06/22 06:54:12;;;;;;;7.55;3.38;;;;;;;21.46;78.63;100617.94;4851590;28;102530;-72
2021/06/22 06:56:39;;;;;;;9.85;3.38;;;;;;;21.49;78.61;100622.75;4847821;28;102640;-71
2021/06/22 06:59:06;;;;;;;22.75;4.82;;;;;;;21.49;78.27;100622.75;4868660;28;102411;-71
2021/06/22 07:01:33;;;;;;;70.25;10.77;;;;;;;21.52;78.53;100616.53;4877243;28;103324;-71
2021/06/22 07:04:01;;;;;;;51.33;9.43;;;;;;;21.50;77.97;100603.03;4874127;28;102407;-71
2021/06/22 07:06:27;;;;;;;216.97;31.07;;;;;;;21.53;78.55;100576.59;4864557;28;102700;-71
2021/06/22 07:08:54;;;;;;;77.63;11.63;;;;;;;21.55;78.32;100582.59;4875044;28;102233;-71
2021/06/22 07:11:21;;;;;;;248.30;33.08;;;;;;;21.58;78.54;100582.72;4867648;28;104445;-71
2021/06/22 07:13:54;;;;;;;154.23;22.35;;;;;;;21.61;78.50;100575.69;4866808;28;102590;-71
2021/06/22 07:16:20;;;;;;;207.40;27.60;;;;;;;21.64;78.44;100579.69;4872448;28;103031;-72
2021/06/22 07:18:47;;;;;;;112.82;16.63;;;;;;;21.67;78.74;100582.56;4871933;28;102727;-71
2021/06/22 07:21:16;;;;;;;365.30;52.25;;;;;;;21.71;79.14;100575.19;4871606;28;102836;-71
2021/06/22 07:23:44;;;;;;;510.02;73.47;;;;;;;21.74;79.17;100563.41;4872387;28;102532;-71
2021/06/22 07:26:11;;;;;;;280.98;41.25;;;;;;;21.79;78.91;100563.16;4870872;28;103272;-71
2021/06/22 07:28:38;;;;;;;142.40;20.80;;;;;;;21.82;79.39;100565.25;4872930;28;102211;-71
2021/06/22 07:31:07;;;;;;;89.25;15.57;;;;;;;21.86;79.40;100564.53;4873232;28;105184;-71
2021/06/22 07:33:33;;;;;;;57.95;11.43;;;;;;;21.88;79.38;100563.00;4874639;28;104843;-71
2021/06/22 07:36:00;;;;;;;51.42;9.35;;;;;;;21.89;79.62;100570.19;4875615;28;102438;-71
2021/06/22 07:38:28;;;;;;;170.80;23.15;;;;;;;21.93;79.65;100565.56;4876509;28;102681;-71
2021/06/22 07:40:56;;;;;;;78.68;13.57;;;;;;;21.94;79.40;100566.34;4874486;28;102700;-71
2021/06/22 07:43:23;;;;;;;53.92;10.07;;;;;;;21.95;79.24;100562.41;4876342;28;102188;-71
2021/06/22 07:45:49;;;;;;;228.65;28.77;;;;;;;21.96;79.22;100564.03;4874747;28;102554;-71
2021/06/22 07:48:16;;;;;;;406.77;49.17;;;;;;;21.95;79.07;100574.31;4876477;28;102314;-71
2021/06/22 07:50:43;;;;;;;446.30;68.50;;;;;;;21.95;79.04;100581.81;4874329;28;103718;-72
2021/06/22 07:53:10;;;;;;;252.90;35.47;;;;;;;21.95;78.71;100573.50;4874376;28;102076;-71
2021/06/22 07:55:38;;;;;;;221.23;35.53;;;;;;;21.92;78.62;100580.53;4874585;28;102435;-71
2021/06/22 07:58:04;;;;;;;234.60;36.22;;;;;;;21.88;78.17;100587.16;4872332;28;102573;-71
2021/06/22 08:00:39;;;;;;;286.67;38.08;;;;;;;21.83;78.06;100582.66;4872298;28;103732;-70
2021/06/22 08:03:06;;;;;;;232.27;36.75;;;;;;;21.78;77.75;100575.41;4879704;28;102130;-72
2021/06/22 08:05:33;;;;;;;211.23;38.88;;;;;;;21.76;77.68;100583.25;4869908;28;102400;-71
2021/06/22 08:08:00;;;;;;;250.88;37.90;;;;;;;21.74;77.59;100590.28;4875345;28;102587;-71
2021/06/22 08:10:26;;;;;;;232.13;35.17;;;;;;;21.71;77.54;100591.00;4873787;28;103946;-71
2021/06/22 08:12:54;;;;;;;235.40;36.17;;;;;;;21.67;77.82;100596.41;4872813;28;102247;-62
2021/06/22 08:15:21;;;;;;;130.07;22.63;;;;;;;21.73;77.90;100600.56;4873474;28;102247;-71
2021/06/22 08:17:47;;;;;;;70.28;12.55;;;;;;;21.81;79.09;100602.38;4874673;28;102902;-72
2021/06/22 08:20:14;;;;;;;134.60;20.58;;;;;;;21.88;79.16;100601.78;4872107;28;104075;-71
2021/06/22 08:22:41;;;;;;;90.75;15.18;;;;;;;21.94;79.32;100605.13;4870504;28;102446;-71
2021/06/22 08:25:09;;;;;;;112.75;17.85;;;;;;;21.98;79.57;100606.06;4872164;28;102564;-71
2021/06/22 08:27:36;;;;;;;117.97;21.25;;;;;;;22.01;79.47;100610.91;4873066;28;103034;-70
2021/06/22 08:30:06;;;;;;;39.60;10.13;;;;;;;22.01;79.07;100616.44;4872067;28;104131;-70
2021/06/22 08:32:33;;;;;;;34.50;10.45;;;;;;;22.04;79.42;100618.50;4877711;28;102601;-71
2021/06/22 08:34:59;;;;;;;708.33;110.75;;;;;;;22.06;79.50;100624.50;4872568;28;102365;-71
2021/06/22 08:37:26;;;;;;;344.65;48.42;;;;;;;22.07;79.50;100626.13;4874594;28;102505;-70
2021/06/22 08:39:52;;;;;;;215.32;28.58;;;;;;;22.10;79.92;100622.63;4872139;28;103332;-70
2021/06/22 08:42:20;;;;;;;277.83;38.35;;;;;;;22.12;79.54;100633.38;4872374;28;102290;-71
2021/06/22 08:44:49;;;;;;;88.38;17.48;;;;;;;22.13;79.90;100633.00;4870885;28;102329;-72
2021/06/22 08:47:21;;;;;;;61.10;11.70;;;;;;;22.16;79.61;100624.03;4873554;28;102897;-71
2021/06/22 08:49:49;;;;;;;89.68;16.02;;;;;;;22.18;79.88;100632.81;4872975;28;103186;-69
2021/06/22 08:52:23;;;;;;;49.08;12.43;;;;;;;22.20;79.86;100632.44;4873768;28;103181;-71
2021/06/22 08:54:51;;;;;;;85.90;14.10;;;;;;;22.20;79.96;100636.03;4871183;28;103421;-71
2021/06/22 08:57:18;;;;;;;310.25;45.38;;;;;;;22.21;79.66;100645.13;4880352;28;102566;-68
2021/06/22 08:59:45;;;;;;;120.50;22.80;;;;;;;22.18;79.10;100643.06;4871701;28;103650;-68
2021/06/22 09:02:12;;;;;;;116.85;21.02;;;;;;;22.10;79.18;100633.72;4876067;28;103225;-68
2021/06/22 09:04:40;;;;;;;109.90;20.42;;;;;;;22.03;78.78;100641.81;4871175;28;102606;-69
2021/06/22 09:07:07;;;;;;;98.67;20.73;;;;;;;21.97;78.87;100648.78;4873371;28;102690;-68
2021/06/22 09:09:35;;;;;;;90.32;20.70;;;;;;;21.90;78.85;100648.56;4871692;28;104158;-68
2021/06/22 09:12:07;;;;;;;106.78;21.00;;;;;;;21.87;78.64;100649.25;4873717;28;102211;-69
2021/06/22 09:14:34;;;;;;;116.82;21.60;;;;;;;21.84;78.77;100656.28;4872324;28;102575;-69
2021/06/22 09:17:02;;;;;;;99.70;20.13;;;;;;;21.81;78.69;100651.44;4871310;28;102163;-69
2021/06/22 09:19:30;;;;;;;97.30;20.38;;;;;;;21.77;78.53;100659.66;4872257;28;103714;-69
2021/06/22 09:22:13;;;;;;;82.05;21.58;;;;;;;21.77;78.25;100651.34;4870631;28;102898;-68
2021/06/22 09:24:59;;;;;;;94.00;20.70;;;;;;;21.74;78.31;100654.00;4884186;28;102511;-68
2021/06/22 09:27:47;;;;;;;86.43;19.85;;;;;;;21.79;78.44;100656.53;4869807;28;102869;-70
2021/06/22 09:30:47;;;;;;;33.72;9.35;;;;;;;21.98;79.58;100644.84;4870639;28;103944;-68
2021/06/22 09:33:19;;;;;;;45.58;8.95;;;;;;;22.09;79.90;100645.97;4871152;28;102888;-70
2021/06/22 09:35:46;;;;;;;203.00;32.25;;;;;;;22.14;80.00;100642.13;4866930;28;102284;-71
2021/06/22 09:38:15;;;;;;;87.82;19.75;;;;;;;22.11;78.91;100637.28;4877294;28;101956;-72
2021/06/22 09:40:41;;;;;;;80.95;17.00;;;;;;;22.05;78.93;100633.97;4871552;28;103920;-72
2021/06/22 09:43:08;;;;;;;69.57;16.38;;;;;;;21.99;78.87;100646.44;4882807;28;102365;-71
2021/06/22 09:45:37;;;;;;;61.83;15.82;;;;;;;21.92;78.74;100640.69;4873788;28;102336;-71
2021/06/22 09:48:05;;;;;;;58.95;16.10;;;;;;;21.86;78.53;100625.50;4872715;28;102464;-71
2021/06/22 09:50:38;;;;;;;56.92;15.57;;;;;;;21.82;78.36;100636.47;4870700;28;103958;-72
2021/06/22 09:53:30;;;;;;;63.35;15.13;;;;;;;21.78;78.44;100635.53;4868989;28;102558;-71
2021/06/22 09:55:58;;;;;;;48.90;15.82;;;;;;;21.76;78.36;100637.84;4868269;28;102677;-71
2021/06/22 09:58:43;;;;;;;55.92;14.43;;;;;;;21.72;78.13;100637.75;4864671;28;103719;-72
2021/06/22 10:01:32;;;;;;;43.38;14.05;;;;;;;21.72;78.07;100626.66;4869452;28;103927;-71
2021/06/22 10:04:17;;;;;;;54.10;14.52;;;;;;;21.72;77.71;100621.13;4869301;28;102634;-69
2021/06/22 10:06:50;;;;;;;42.70;13.57;;;;;;;21.69;77.77;100619.03;4870408;28;102833;-70
2021/06/22 10:09:22;;;;;;;44.47;13.07;;;;;;;21.66;77.57;100614.19;4868538;28;102554;-70
2021/06/22 10:11:55;;;;;;;47.53;13.60;;;;;;;21.64;77.55;100619.28;4865863;28;103873;-70
2021/06/22 10:14:26;;;;;;;43.85;13.38;;;;;;;21.63;77.36;100625.97;4864155;28;102199;-70
2021/06/22 10:16:53;;;;;;;35.33;12.75;;;;;;;21.62;77.30;100620.78;4870288;28;102429;-70
2021/06/22 10:19:23;;;;;;;41.17;12.65;;;;;;;21.60;77.33;100621.13;4869833;28;103976;-70
2021/06/22 10:21:50;;;;;;;39.63;12.50;;;;;;;21.58;77.35;100612.38;4868048;28;103964;-70
2021/06/22 10:24:18;;;;;;;35.20;13.38;;;;;;;21.56;77.26;100600.81;4867776;28;102695;-70
2021/06/22 10:26:47;;;;;;;35.72;12.75;;;;;;;21.61;77.10;100602.56;4867618;28;102497;-71
2021/06/22 10:29:18;;;;;;;38.85;13.30;;;;;;;21.54;77.06;100603.16;4875191;28;102518;-70
2021/06/22 10:31:45;;;;;;;31.70;12.10;;;;;;;21.52;77.03;100606.25;4868641;28;102756;-71
2021/06/22 10:34:12;;;;;;;38.45;11.50;;;;;;;21.53;76.93;100607.06;4868442;28;102508;-71
2021/06/22 10:36:46;;;;;;;35.15;12.15;;;;;;;21.51;76.95;100609.38;4869403;28;103799;-71
2021/06/22 10:39:19;;;;;;;31.20;11.32;;;;;;;21.51;76.98;100615.72;4869821;28;102555;-71
2021/06/22 10:41:48;;;;;;;34.05;12.20;;;;;;;21.50;76.90;100614.13;4868825;28;103872;-68
2021/06/22 10:44:40;;;;;;;32.90;11.70;;;;;;;21.51;76.80;100620.47;4870253;28;102155;-68
2021/06/22 10:47:31;;;;;;;26.25;11.55;;;;;;;21.50;76.74;100613.31;4865300;28;102180;-69
2021/06/22 10:50:05;;;;;;;36.45;11.93;;;;;;;21.48;76.84;100604.53;4854591;28;102603;-69
2021/06/22 10:53:05;;;;;;;32.00;11.60;;;;;;;21.48;76.65;100601.78;4872577;28;103004;-69
2021/06/22 10:55:57;;;;;;;27.42;10.93;;;;;;;21.48;76.62;100590.69;4873618;28;103429;-69
2021/06/22 10:58:25;;;;;;;23.83;10.30;;;;;;;21.46;76.63;100591.06;4872549;28;102513;-69
2021/06/22 11:01:12;;;;;;;29.20;10.60;;;;;;;21.45;76.70;100592.19;4869007;28;102494;-69
2021/06/22 11:03:39;;;;;;;22.00;10.32;;;;;;;21.45;76.53;100600.50;4873326;28;104109;-69
2021/06/22 11:06:29;;;;;;;21.50;11.00;;;;;;;21.46;76.54;100595.78;4876105;28;102209;-69
2021/06/22 11:09:17;;;;;;;28.60;10.43;;;;;;;21.46;76.43;100593.03;4869515;28;102673;-69
2021/06/22 11:11:44;;;;;;;25.15;10.55;;;;;;;21.43;76.52;100590.94;4873597;28;103815;-69
2021/06/22 11:14:13;;;;;;;23.00;11.15;;;;;;;21.41;76.55;100588.50;4871574;28;104025;-69
2021/06/22 11:16:39;;;;;;;;;;;;;;;21.40;76.64;100595.19;4874533;28;102702;-69
2021/06/22 11:19:09;;;;;;;21.08;10.57;;;;;;;21.41;76.40;100587.69;4874658;28;102629;-69